createdAt,value
2023-05-23T00:00:09.187Z,98353.75
2023-05-23T00:02:35.764Z,98355.31
2023-05-23T00:05:03.683Z,98352.16
2023-05-23T00:07:32.458Z,98357.06
2023-05-23T00:09:59.003Z,98358.22
2023-05-23T00:12:25.672Z,98361.63
2023-05-23T00:14:53.645Z,98354.66
2023-05-23T00:17:21.926Z,98347.94
2023-05-23T00:19:49.011Z,98351.75
2023-05-23T00:22:16.757Z,98361.97
2023-05-23T00:24:44.012Z,98358.19
2023-05-23T00:27:10.629Z,98364.63
2023-05-23T00:29:37.168Z,98361.78
2023-05-23T00:32:03.830Z,98353.47
2023-05-23T00:34:30.365Z,98353.78
2023-05-23T00:36:58.206Z,98348.97
2023-05-23T00:39:24.766Z,98353.09
2023-05-23T00:41:52.917Z,98343.88
2023-05-23T00:44:21.166Z,98351.81
2023-05-23T00:46:55.481Z,98356.47
2023-05-23T00:49:22.378Z,98356.59
2023-05-23T00:51:50.057Z,98356.03
2023-05-23T00:54:28.719Z,98357.16
2023-05-23T00:56:56.074Z,98351.25
2023-05-23T00:59:26.795Z,98354.75
2023-05-23T01:01:55.886Z,98352.59
2023-05-23T01:04:26.409Z,98350.78
2023-05-23T01:06:54.864Z,98346.75
2023-05-23T01:09:22.421Z,98355.72
2023-05-23T01:12:12.411Z,98362.91
2023-05-23T01:14:49.403Z,98365.34
2023-05-23T01:17:21.704Z,98364.09
2023-05-23T01:20:10.243Z,98360.88
2023-05-23T01:23:02.759Z,98363.34
2023-05-23T01:25:59.342Z,98362.81
2023-05-23T01:28:43.528Z,98366.88
2023-05-23T01:31:11.106Z,98365.31
2023-05-23T01:33:40.168Z,98369.63
2023-05-23T01:36:08.028Z,98377.34
2023-05-23T01:38:34.613Z,98377.91
2023-05-23T01:41:01.176Z,98376.31
2023-05-23T01:43:27.797Z,98371.50
2023-05-23T01:45:56.731Z,98375.78
2023-05-23T01:48:26.073Z,98369.88
2023-05-23T01:50:53.369Z,98368.53
2023-05-23T01:53:22.493Z,98375.25
2023-05-23T01:55:49.401Z,98368.22
2023-05-23T01:58:15.940Z,98378.63
2023-05-23T02:00:42.494Z,98373.16
2023-05-23T02:03:09.318Z,98374.81
2023-05-23T02:05:36.151Z,98361.78
2023-05-23T02:08:02.652Z,98369.16
2023-05-23T02:10:29.190Z,98376.72
2023-05-23T02:12:55.670Z,98381.88
2023-05-23T02:15:22.202Z,98382.44
2023-05-23T02:17:48.719Z,98384.81
2023-05-23T02:20:15.384Z,98391.34
2023-05-23T02:22:41.875Z,98391.66
2023-05-23T02:25:08.743Z,98392.72
2023-05-23T02:27:35.380Z,98397.00
2023-05-23T02:30:01.995Z,98391.66
2023-05-23T02:32:29.672Z,98392.84
2023-05-23T02:34:57.447Z,98389.03
2023-05-23T02:37:24.266Z,98394.47
2023-05-23T02:39:50.760Z,98395.50
2023-05-23T02:42:17.224Z,98386.22
2023-05-23T02:44:43.778Z,98392.16
2023-05-23T02:47:10.868Z,98389.47
2023-05-23T02:49:37.383Z,98387.75
2023-05-23T02:52:03.919Z,98383.25
2023-05-23T02:54:31.126Z,98384.78
2023-05-23T02:56:58.518Z,98376.94
2023-05-23T02:59:26.727Z,98383.78
2023-05-23T03:01:53.481Z,98390.84
2023-05-23T03:04:19.986Z,98382.44
2023-05-23T03:06:47.581Z,98388.63
2023-05-23T03:09:17.014Z,98391.13
2023-05-23T03:11:43.923Z,98396.06
2023-05-23T03:14:10.628Z,98385.50
2023-05-23T03:16:37.238Z,98384.69
2023-05-23T03:19:04.761Z,98393.88
2023-05-23T03:21:32.962Z,98386.22
2023-05-23T03:23:59.503Z,98390.13
2023-05-23T03:26:26.000Z,98391.75
2023-05-23T03:28:52.568Z,98394.72
2023-05-23T03:31:19.176Z,98390.69
2023-05-23T03:33:45.829Z,98403.97
2023-05-23T03:36:12.331Z,98395.84
2023-05-23T03:38:38.852Z,98402.66
2023-05-23T03:41:05.499Z,98404.06
2023-05-23T03:43:32.053Z,98408.09
2023-05-23T03:45:59.115Z,98413.25
2023-05-23T03:48:25.711Z,98404.06
2023-05-23T03:50:52.231Z,98405.97
2023-05-23T03:53:18.801Z,98409.25
2023-05-23T03:55:45.583Z,98408.38
2023-05-23T03:58:12.092Z,98408.44
2023-05-23T04:00:38.651Z,98410.38
2023-05-23T04:03:05.296Z,98409.47
2023-05-23T04:05:32.081Z,98411.25
2023-05-23T04:08:01.339Z,98410.69
2023-05-23T04:10:28.030Z,98418.41
2023-05-23T04:12:54.570Z,98420.78
2023-05-23T04:15:22.330Z,98430.19
2023-05-23T04:17:48.940Z,98430.19
2023-05-23T04:20:15.694Z,98436.69
2023-05-23T04:22:42.194Z,98437.47
2023-05-23T04:25:09.554Z,98441.56
2023-05-23T04:27:37.296Z,98441.00
2023-05-23T04:30:07.371Z,98441.03
2023-05-23T04:32:34.111Z,98435.78
2023-05-23T04:35:02.179Z,98440.69
2023-05-23T04:37:28.918Z,98440.13
2023-05-23T04:39:56.615Z,98437.72
2023-05-23T04:42:24.729Z,98432.22
2023-05-23T04:44:52.737Z,98443.31
2023-05-23T04:47:19.324Z,98440.84
2023-05-23T04:49:45.851Z,98441.59
2023-05-23T04:52:13.428Z,98450.38
2023-05-23T04:54:44.629Z,98443.84
2023-05-23T04:57:12.392Z,98449.53
2023-05-23T04:59:39.511Z,98451.09
2023-05-23T05:02:06.511Z,98453.44
2023-05-23T05:04:33.069Z,98454.25
2023-05-23T05:06:59.612Z,98464.19
2023-05-23T05:09:26.212Z,98462.75
2023-05-23T05:11:52.769Z,98460.84
2023-05-23T05:14:19.252Z,98459.13
2023-05-23T05:16:47.915Z,98456.34
2023-05-23T05:19:15.143Z,98450.00
2023-05-23T05:21:41.752Z,98451.31
2023-05-23T05:24:11.176Z,98450.59
2023-05-23T05:26:37.750Z,98444.72
2023-05-23T05:29:04.409Z,98453.94
2023-05-23T05:31:31.092Z,98464.22
2023-05-23T05:33:57.746Z,98452.38
2023-05-23T05:36:24.356Z,98448.72
2023-05-23T05:38:51.257Z,98456.81
2023-05-23T05:41:17.839Z,98455.34
2023-05-23T05:43:44.343Z,98457.47
2023-05-23T05:46:11.525Z,98462.00
2023-05-23T05:48:38.075Z,98465.81
2023-05-23T05:51:04.847Z,98470.56
2023-05-23T05:53:31.358Z,98475.88
2023-05-23T05:55:57.928Z,98468.72
2023-05-23T05:58:24.451Z,98471.16
2023-05-23T06:00:50.997Z,98472.66
2023-05-23T06:03:18.146Z,98469.06
2023-05-23T06:05:44.811Z,98469.28
2023-05-23T06:08:11.589Z,98469.66
2023-05-23T06:10:39.862Z,98473.06
2023-05-23T06:13:06.714Z,98469.66
2023-05-23T06:15:33.304Z,98471.97
2023-05-23T06:17:59.863Z,98468.25
2023-05-23T06:20:26.627Z,98474.19
2023-05-23T06:22:53.260Z,98476.41
2023-05-23T06:25:19.963Z,98478.47
2023-05-23T06:27:46.452Z,98477.56
2023-05-23T06:30:13.798Z,98481.00
2023-05-23T06:32:41.350Z,98482.22
2023-05-23T06:35:08.360Z,98484.16
2023-05-23T06:37:35.066Z,98486.00
2023-05-23T06:40:01.806Z,98488.47
2023-05-23T06:42:28.329Z,98476.97
2023-05-23T06:44:54.908Z,98486.03
2023-05-23T06:47:21.484Z,98489.00
2023-05-23T06:49:48.033Z,98490.47
2023-05-23T06:52:14.554Z,98489.69
2023-05-23T06:54:41.309Z,98493.50
2023-05-23T06:57:07.844Z,98498.06
2023-05-23T06:59:34.343Z,98510.38
2023-05-23T07:02:00.877Z,98506.66
2023-05-23T07:04:27.415Z,98499.44
2023-05-23T07:06:53.958Z,98499.41
2023-05-23T07:09:20.607Z,98501.31
2023-05-23T07:11:47.168Z,98500.03
2023-05-23T07:14:13.792Z,98510.94
2023-05-23T07:16:40.397Z,98515.91
2023-05-23T07:19:07.127Z,98514.03
2023-05-23T07:21:33.690Z,98511.28
2023-05-23T07:24:00.564Z,98510.69
2023-05-23T07:26:27.560Z,98517.72
2023-05-23T07:28:54.169Z,98513.22
2023-05-23T07:31:20.746Z,98511.34
2023-05-23T07:33:47.283Z,98517.28
2023-05-23T07:36:13.749Z,98511.19
2023-05-23T07:38:40.298Z,98513.56
2023-05-23T07:41:12.027Z,98513.28
2023-05-23T07:43:39.444Z,98516.34
2023-05-23T07:46:06.102Z,98514.88
2023-05-23T07:48:33.228Z,98511.44
2023-05-23T07:50:59.754Z,98521.03
2023-05-23T07:53:26.496Z,98517.88
2023-05-23T07:55:53.099Z,98511.59
2023-05-23T07:58:19.648Z,98511.91
2023-05-23T08:00:46.270Z,98509.16
2023-05-23T08:03:13.425Z,98508.28
2023-05-23T08:05:40.074Z,98506.94
2023-05-23T08:08:06.630Z,98512.13
2023-05-23T08:10:33.209Z,98498.88
2023-05-23T08:13:00.956Z,98512.28
2023-05-23T08:15:28.827Z,98508.75
2023-05-23T08:17:57.383Z,98507.50
2023-05-23T08:20:30.888Z,98501.75
2023-05-23T08:23:01.424Z,98503.94
2023-05-23T08:25:32.031Z,98505.53
2023-05-23T08:27:59.419Z,98503.03
2023-05-23T08:30:27.449Z,98507.19
2023-05-23T08:32:55.683Z,98511.31
2023-05-23T08:35:22.840Z,98520.38
2023-05-23T08:37:50.908Z,98510.84
2023-05-23T08:40:22.822Z,98521.03
2023-05-23T08:42:50.875Z,98522.72
2023-05-23T08:45:18.293Z,98524.56
2023-05-23T08:47:46.059Z,98528.34
2023-05-23T08:50:20.130Z,98533.84
2023-05-23T08:52:55.993Z,98540.78
2023-05-23T08:55:27.166Z,98534.75
2023-05-23T08:57:59.323Z,98533.41
2023-05-23T09:00:27.990Z,98532.72
2023-05-23T09:02:54.776Z,98541.00
2023-05-23T09:05:22.052Z,98538.41
2023-05-23T09:07:49.256Z,98541.09
2023-05-23T09:10:20.407Z,98533.53
2023-05-23T09:12:47.442Z,98529.97
2023-05-23T09:15:14.787Z,98533.22
2023-05-23T09:17:41.714Z,98528.16
2023-05-23T09:20:14.348Z,98530.19
2023-05-23T09:22:41.386Z,98530.38
2023-05-23T09:25:08.949Z,98529.75
2023-05-23T09:27:36.125Z,98524.31
2023-05-23T09:30:11.191Z,98528.84
2023-05-23T09:32:38.178Z,98522.44
2023-05-23T09:35:07.174Z,98525.31
2023-05-23T09:37:39.258Z,98518.97
2023-05-23T09:40:10.720Z,98526.25
2023-05-23T09:42:44.250Z,98522.03
2023-05-23T09:45:15.177Z,98519.63
2023-05-23T09:47:52.215Z,98519.63
2023-05-23T09:50:19.851Z,98510.88
2023-05-23T09:52:47.178Z,98517.47
2023-05-23T09:55:14.792Z,98514.09
2023-05-23T09:57:42.802Z,98500.78
2023-05-23T10:00:17.084Z,98500.13
2023-05-23T10:03:01.771Z,98504.19
2023-05-23T10:05:50.119Z,98498.25
2023-05-23T10:08:29.980Z,98491.84
2023-05-23T10:10:56.525Z,98494.97
2023-05-23T10:13:26.789Z,98492.13
2023-05-23T10:16:00.241Z,98487.59
2023-05-23T10:18:29.992Z,98488.50
2023-05-23T10:21:03.259Z,98500.66
2023-05-23T10:23:29.879Z,98500.88
2023-05-23T10:25:56.354Z,98508.44
2023-05-23T10:28:23.038Z,98504.25
2023-05-23T10:30:51.062Z,98508.34
2023-05-23T10:33:18.922Z,98501.59
2023-05-23T10:36:10.188Z,98503.25
2023-05-23T10:38:44.107Z,98501.38
2023-05-23T10:41:34.104Z,98498.81
2023-05-23T10:44:27.061Z,98497.31
2023-05-23T10:47:02.419Z,98497.03
2023-05-23T10:49:52.428Z,98490.88
2023-05-23T10:52:19.179Z,98493.97
2023-05-23T10:54:54.057Z,98485.44
2023-05-23T10:57:29.467Z,98480.63
2023-05-23T10:59:56.251Z,98484.78
2023-05-23T11:02:28.820Z,98480.03
2023-05-23T11:05:24.797Z,98487.03
2023-05-23T11:08:13.977Z,98485.28
2023-05-23T11:10:59.466Z,98483.41
2023-05-23T11:13:26.941Z,98479.31
2023-05-23T11:15:53.601Z,98477.69
2023-05-23T11:18:26.577Z,98488.47
2023-05-23T11:20:54.621Z,98485.59
2023-05-23T11:23:22.524Z,98487.53
2023-05-23T11:25:52.077Z,98494.13
2023-05-23T11:28:18.910Z,98484.84
2023-05-23T11:30:48.875Z,98488.94
2023-05-23T11:33:17.209Z,98489.84
2023-05-23T11:35:47.851Z,98490.91
2023-05-23T11:38:16.719Z,98489.66
2023-05-23T11:40:46.241Z,98495.31
2023-05-23T11:43:18.088Z,98482.94
2023-05-23T11:45:46.870Z,98477.75
2023-05-23T11:48:16.556Z,98468.25
2023-05-23T11:50:48.510Z,98474.16
2023-05-23T11:53:20.847Z,98464.72
2023-05-23T11:55:55.017Z,98472.03
2023-05-23T11:58:23.192Z,98467.53
2023-05-23T12:00:49.975Z,98457.81
2023-05-23T12:03:16.847Z,98459.25
2023-05-23T12:05:45.451Z,98453.19
2023-05-23T12:08:14.213Z,98459.72
2023-05-23T12:11:00.367Z,98461.19
2023-05-23T12:13:29.218Z,98458.16
2023-05-23T12:15:56.694Z,98462.69
2023-05-23T12:18:23.649Z,98455.91
2023-05-23T12:20:51.536Z,98450.88
2023-05-23T12:23:25.089Z,98463.59
2023-05-23T12:25:55.673Z,98456.00
2023-05-23T12:28:35.079Z,98442.88
2023-05-23T12:31:18.967Z,98450.25
2023-05-23T12:33:48.366Z,98453.19
2023-05-23T12:36:22.986Z,98456.28
2023-05-23T12:38:49.672Z,98459.78
2023-05-23T12:41:19.809Z,98450.84
2023-05-23T12:43:51.896Z,98456.69
2023-05-23T12:46:19.375Z,98443.22
2023-05-23T12:48:45.837Z,98448.97
2023-05-23T12:51:12.381Z,98438.13
2023-05-23T12:53:39.150Z,98442.00
2023-05-23T12:56:06.027Z,98440.44
2023-05-23T12:58:32.850Z,98430.53
2023-05-23T13:00:59.447Z,98420.09
2023-05-23T13:03:26.286Z,98439.44
2023-05-23T13:05:53.881Z,98430.81
2023-05-23T13:08:21.393Z,98424.66
2023-05-23T13:10:48.266Z,98439.50
2023-05-23T13:13:15.296Z,98431.16
2023-05-23T13:15:42.480Z,98429.56
2023-05-23T13:18:09.633Z,98426.34
2023-05-23T13:20:36.167Z,98420.41
2023-05-23T13:23:02.864Z,98416.16
2023-05-23T13:25:29.781Z,98425.75
2023-05-23T13:27:56.964Z,98418.50
2023-05-23T13:30:24.783Z,98421.53
2023-05-23T13:32:52.200Z,98426.28
2023-05-23T13:35:18.950Z,98426.25
2023-05-23T13:37:45.519Z,98424.50
2023-05-23T13:40:20.266Z,98424.66
2023-05-23T13:42:51.305Z,98422.66
2023-05-23T13:45:18.640Z,98425.75
2023-05-23T13:47:45.524Z,98421.69
2023-05-23T13:50:12.181Z,98428.25
2023-05-23T13:52:41.126Z,98417.84
2023-05-23T13:55:10.008Z,98426.31
2023-05-23T13:57:36.576Z,98425.31
2023-05-23T14:00:03.733Z,98429.53
2023-05-23T14:02:32.190Z,98431.97
2023-05-23T14:04:58.972Z,98430.06
2023-05-23T14:07:25.577Z,98424.53
2023-05-23T14:09:52.192Z,98425.25
2023-05-23T14:12:18.822Z,98415.63
2023-05-23T14:14:45.343Z,98414.88
2023-05-23T14:17:17.650Z,98417.06
2023-05-23T14:19:44.529Z,98422.34
2023-05-23T14:22:11.464Z,98422.72
2023-05-23T14:24:38.087Z,98420.44
2023-05-23T14:27:04.831Z,98421.34
2023-05-23T14:29:31.724Z,98417.63
2023-05-23T14:32:00.844Z,98413.31
2023-05-23T14:34:27.586Z,98416.53
2023-05-23T14:36:54.237Z,98412.25
2023-05-23T14:39:20.723Z,98413.75
2023-05-23T14:41:47.247Z,98420.38
2023-05-23T14:44:13.806Z,98419.00
2023-05-23T14:46:42.080Z,98412.63
2023-05-23T14:49:08.650Z,98399.72
2023-05-23T14:54:09.692Z,98420.59
2023-05-23T14:56:37.735Z,98414.44
2023-05-23T14:59:08.116Z,98406.28
2023-05-23T15:01:35.660Z,98406.94
2023-05-23T15:04:05.619Z,98408.91
2023-05-23T15:06:32.399Z,98407.63
2023-05-23T15:08:58.979Z,98415.53
2023-05-23T15:11:27.397Z,98417.50
2023-05-23T15:13:54.299Z,98414.50
2023-05-23T15:16:20.959Z,98406.34
2023-05-23T15:18:47.739Z,98418.84
2023-05-23T15:21:14.629Z,98417.38
2023-05-23T15:23:41.686Z,98413.47
2023-05-23T15:26:08.365Z,98419.13
2023-05-23T15:28:35.031Z,98418.34
2023-05-23T15:31:01.859Z,98410.28
2023-05-23T15:33:28.788Z,98426.25
2023-05-23T15:35:55.898Z,98415.25
2023-05-23T15:38:22.404Z,98420.94
2023-05-23T15:40:49.126Z,98425.63
2023-05-23T15:43:15.759Z,98429.63
2023-05-23T15:45:42.446Z,98428.88
2023-05-23T15:48:09.183Z,98414.09
2023-05-23T15:50:35.843Z,98419.72
2023-05-23T15:53:02.396Z,98422.03
2023-05-23T15:55:29.017Z,98420.69
2023-05-23T15:57:55.685Z,98428.97
2023-05-23T16:00:22.233Z,98424.66
2023-05-23T16:02:48.777Z,98431.13
2023-05-23T16:05:16.418Z,98422.25
2023-05-23T16:07:43.053Z,98420.75
2023-05-23T16:10:09.970Z,98422.72
2023-05-23T16:12:36.770Z,98413.97
2023-05-23T16:15:03.546Z,98422.38
2023-05-23T16:17:30.108Z,98413.53
2023-05-23T16:19:56.638Z,98416.25
2023-05-23T16:22:23.559Z,98422.63
2023-05-23T16:24:50.048Z,98418.03
2023-05-23T16:27:16.660Z,98413.75
2023-05-23T16:29:43.402Z,98418.56
2023-05-23T16:32:10.013Z,98421.69
2023-05-23T16:34:36.725Z,98421.81
2023-05-23T16:37:03.320Z,98420.88
2023-05-23T16:39:29.892Z,98418.88
2023-05-23T16:41:57.533Z,98420.97
2023-05-23T16:44:26.165Z,98406.03
2023-05-23T16:46:52.701Z,98415.09
2023-05-23T16:49:19.363Z,98410.25
2023-05-23T16:51:48.556Z,98412.91
2023-05-23T16:54:16.083Z,98413.75
2023-05-23T16:56:43.162Z,98411.50
2023-05-23T16:59:09.652Z,98417.94
2023-05-23T17:01:36.419Z,98415.84
2023-05-23T17:04:04.676Z,98423.00
2023-05-23T17:06:32.182Z,98424.44
2023-05-23T17:08:58.724Z,98419.91
2023-05-23T17:11:25.662Z,98428.16
2023-05-23T17:13:52.298Z,98429.59
2023-05-23T17:16:20.710Z,98430.72
2023-05-23T17:18:47.558Z,98436.22
2023-05-23T17:21:14.150Z,98433.28
2023-05-23T17:23:40.793Z,98432.31
2023-05-23T17:26:07.362Z,98432.00
2023-05-23T17:28:33.982Z,98430.22
2023-05-23T17:31:00.996Z,98427.47
2023-05-23T17:33:27.781Z,98432.78
2023-05-23T17:35:54.382Z,98432.91
2023-05-23T17:38:21.165Z,98431.91
2023-05-23T17:40:47.774Z,98433.31
2023-05-23T17:43:14.366Z,98428.06
2023-05-23T17:45:41.433Z,98430.06
2023-05-23T17:48:07.992Z,98426.50
2023-05-23T17:50:34.566Z,98422.63
2023-05-23T17:53:02.787Z,98425.50
2023-05-23T17:55:30.671Z,98431.78
2023-05-23T17:57:57.211Z,98430.47
2023-05-23T18:00:24.169Z,98431.47
2023-05-23T18:02:51.905Z,98434.34
2023-05-23T18:05:20.778Z,98438.28
2023-05-23T18:07:47.804Z,98447.47
2023-05-23T18:10:14.526Z,98449.41
2023-05-23T18:12:41.361Z,98462.28
2023-05-23T18:15:08.829Z,98460.44
2023-05-23T18:17:35.767Z,98461.59
2023-05-23T18:20:02.602Z,98467.16
2023-05-23T18:22:31.725Z,98473.25
2023-05-23T18:24:58.309Z,98473.63
2023-05-23T18:27:25.158Z,98470.53
2023-05-23T18:29:51.899Z,98473.75
2023-05-23T18:32:18.543Z,98478.72
2023-05-23T18:34:45.094Z,98476.34
2023-05-23T18:37:11.657Z,98482.31
2023-05-23T18:39:38.670Z,98491.44
2023-05-23T18:42:05.763Z,98486.50
2023-05-23T18:44:32.347Z,98499.22
2023-05-23T18:46:58.981Z,98499.09
2023-05-23T18:49:25.590Z,98499.72
2023-05-23T18:51:54.368Z,98499.44
2023-05-23T18:54:20.953Z,98506.22
2023-05-23T18:56:47.496Z,98509.66
2023-05-23T18:59:15.852Z,98506.22
2023-05-23T19:01:42.705Z,98502.41
2023-05-23T19:04:09.945Z,98506.13
2023-05-23T19:06:36.800Z,98513.50
2023-05-23T19:09:06.720Z,98508.84
2023-05-23T19:11:33.283Z,98520.69
2023-05-23T19:13:59.799Z,98519.19
2023-05-23T19:16:26.322Z,98521.19
2023-05-23T19:18:53.197Z,98525.25
2023-05-23T19:21:19.810Z,98535.63
2023-05-23T19:23:46.312Z,98537.34
2023-05-23T19:26:13.665Z,98543.34
2023-05-23T19:28:40.553Z,98547.63
2023-05-23T19:31:07.940Z,98555.28
2023-05-23T19:33:34.577Z,98551.22
2023-05-23T19:36:01.187Z,98564.63
2023-05-23T19:38:27.737Z,98564.13
2023-05-23T19:40:54.397Z,98570.59
2023-05-23T19:43:21.028Z,98575.81
2023-05-23T19:45:48.849Z,98572.66
2023-05-23T19:48:16.089Z,98571.81
2023-05-23T19:50:43.442Z,98585.97
2023-05-23T19:53:10.507Z,98584.06
2023-05-23T19:55:37.094Z,98589.72
2023-05-23T19:58:03.641Z,98595.22
2023-05-23T20:00:30.191Z,98608.09
2023-05-23T20:02:56.956Z,98610.41
2023-05-23T20:05:23.782Z,98621.97
2023-05-23T20:07:50.369Z,98623.31
2023-05-23T20:10:16.959Z,98624.22
2023-05-23T20:12:43.497Z,98631.56
2023-05-23T20:15:10.904Z,98637.84
2023-05-23T20:17:38.844Z,98639.72
2023-05-23T20:20:06.375Z,98645.75
2023-05-23T20:22:32.851Z,98652.06
2023-05-23T20:24:59.389Z,98649.84
2023-05-23T20:27:26.821Z,98648.81
2023-05-23T20:29:53.371Z,98656.00
2023-05-23T20:32:19.895Z,98652.72
2023-05-23T20:34:46.756Z,98648.59
2023-05-23T20:37:13.713Z,98665.22
2023-05-23T20:39:43.836Z,98665.91
2023-05-23T20:42:10.438Z,98673.22
2023-05-23T20:44:38.167Z,98673.97
2023-05-23T20:47:06.783Z,98670.31
2023-05-23T20:49:34.802Z,98675.75
2023-05-23T20:52:01.648Z,98668.44
2023-05-23T20:54:28.233Z,98675.72
2023-05-23T20:56:54.763Z,98673.41
2023-05-23T20:59:21.645Z,98677.16
2023-05-23T21:01:48.162Z,98673.44
2023-05-23T21:04:16.170Z,98667.88
2023-05-23T21:06:44.654Z,98676.84
2023-05-23T21:09:13.605Z,98670.22
2023-05-23T21:11:40.117Z,98679.34
2023-05-23T21:14:06.669Z,98677.44
2023-05-23T21:16:33.549Z,98675.28
2023-05-23T21:19:00.369Z,98675.03
2023-05-23T21:21:26.950Z,98679.53
2023-05-23T21:23:53.486Z,98684.00
2023-05-23T21:26:20.022Z,98675.97
2023-05-23T21:28:46.483Z,98683.41
2023-05-23T21:31:13.367Z,98681.53
2023-05-23T21:33:39.905Z,98681.28
2023-05-23T21:36:06.590Z,98684.78
2023-05-23T21:38:37.349Z,98692.16
2023-05-23T21:41:03.932Z,98690.13
2023-05-23T21:43:30.616Z,98689.13
2023-05-23T21:45:57.138Z,98686.28
2023-05-23T21:48:23.717Z,98686.88
2023-05-23T21:50:50.498Z,98689.91
2023-05-23T21:53:17.081Z,98692.59
2023-05-23T21:55:43.669Z,98695.00
2023-05-23T21:58:10.279Z,98702.38
2023-05-23T22:00:36.858Z,98702.69
2023-05-23T22:03:03.413Z,98699.91
2023-05-23T22:05:30.031Z,98702.38
2023-05-23T22:07:56.453Z,98700.19
2023-05-23T22:10:22.902Z,98693.97
2023-05-23T22:12:49.347Z,98691.03
2023-05-23T22:15:15.950Z,98691.28
2023-05-23T22:17:43.717Z,98690.69
2023-05-23T22:20:14.382Z,98692.06
2023-05-23T22:22:40.889Z,98690.72
2023-05-23T22:25:08.056Z,98691.84
2023-05-23T22:27:34.539Z,98690.22
2023-05-23T22:30:00.979Z,98688.53
2023-05-23T22:32:27.422Z,98691.50
2023-05-23T22:34:53.858Z,98689.09
2023-05-23T22:37:20.680Z,98682.06
2023-05-23T22:39:47.219Z,98675.47
2023-05-23T22:42:13.784Z,98679.28
2023-05-23T22:44:40.253Z,98675.75
2023-05-23T22:47:06.831Z,98678.16
2023-05-23T22:49:33.304Z,98678.75
2023-05-23T22:51:59.875Z,98679.91
2023-05-23T22:54:26.484Z,98678.56
2023-05-23T22:56:53.160Z,98675.06
2023-05-23T22:59:19.714Z,98681.53
2023-05-23T23:01:46.367Z,98679.72
2023-05-23T23:04:12.866Z,98680.53
2023-05-23T23:06:39.355Z,98673.72
2023-05-23T23:09:05.869Z,98668.63
2023-05-23T23:11:32.338Z,98668.63
2023-05-23T23:13:59.845Z,98661.06
2023-05-23T23:16:26.346Z,98666.22
2023-05-23T23:18:52.817Z,98663.03
2023-05-23T23:21:19.310Z,98665.13
2023-05-23T23:23:45.766Z,98667.34
2023-05-23T23:26:12.343Z,98658.16
2023-05-23T23:28:38.744Z,98658.97
2023-05-23T23:31:05.295Z,98669.38
2023-05-23T23:33:31.768Z,98662.59
2023-05-23T23:35:58.360Z,98652.00
2023-05-23T23:38:24.789Z,98662.59
2023-05-23T23:40:51.365Z,98665.63
2023-05-23T23:43:18.000Z,98666.09
2023-05-23T23:45:45.209Z,98659.63
2023-05-23T23:48:13.830Z,98663.41
2023-05-23T23:50:40.745Z,98656.88
2023-05-23T23:53:07.924Z,98648.28
2023-05-23T23:55:34.524Z,98654.78
2023-05-23T23:58:01.033Z,98659.63
